sensor_id;sensor_type;location;lat;lon;timestamp;P1;durP1;ratioP1;P2;durP2;ratioP2
3875;SDS011;1953;51.222;6.624;2023-12-20T00:00:26;8.83;;;4.10;;
3875;SDS011;1953;51.222;6.624;2023-12-20T00:05:08;11.93;;;4.93;;
3875;SDS011;1953;51.222;6.624;2023-12-20T00:09:51;16.77;;;5.30;;
3875;SDS011;1953;51.222;6.624;2023-12-20T00:14:33;15.33;;;5.77;;
3875;SDS011;1953;51.222;6.624;2023-12-20T00:20:33;18.53;;;7.23;;
3875;SDS011;1953;51.222;6.624;2023-12-20T00:25:16;22.90;;;8.23;;
3875;SDS011;1953;51.222;6.624;2023-12-20T00:29:59;18.07;;;8.10;;
3875;SDS011;1953;51.222;6.624;2023-12-20T00:34:41;22.83;;;8.93;;
3875;SDS011;1953;51.222;6.624;2023-12-20T00:39:26;22.07;;;9.07;;
3875;SDS011;1953;51.222;6.624;2023-12-20T00:44:08;19.70;;;8.70;;
3875;SDS011;1953;51.222;6.624;2023-12-20T00:48:51;26.83;;;8.97;;
3875;SDS011;1953;51.222;6.624;2023-12-20T00:53:33;21.13;;;9.60;;
3875;SDS011;1953;51.222;6.624;2023-12-20T00:58:17;25.17;;;8.97;;
3875;SDS011;1953;51.222;6.624;2023-12-20T01:03:00;24.40;;;9.67;;
3875;SDS011;1953;51.222;6.624;2023-12-20T01:07:42;24.87;;;10.17;;
3875;SDS011;1953;51.222;6.624;2023-12-20T01:12:25;24.37;;;11.93;;
3875;SDS011;1953;51.222;6.624;2023-12-20T01:17:09;26.83;;;13.37;;
3875;SDS011;1953;51.222;6.624;2023-12-20T01:21:51;25.97;;;11.20;;
3875;SDS011;1953;51.222;6.624;2023-12-20T01:26:34;31.13;;;14.90;;
3875;SDS011;1953;51.222;6.624;2023-12-20T01:31:16;28.33;;;14.20;;
3875;SDS011;1953;51.222;6.624;2023-12-20T01:36:00;27.90;;;14.67;;
3875;SDS011;1953;51.222;6.624;2023-12-20T01:40:43;29.80;;;13.83;;
3875;SDS011;1953;51.222;6.624;2023-12-20T01:45:25;24.57;;;12.53;;
3875;SDS011;1953;51.222;6.624;2023-12-20T01:50:08;27.30;;;11.17;;
3875;SDS011;1953;51.222;6.624;2023-12-20T01:54:52;27.50;;;11.57;;
3875;SDS011;1953;51.222;6.624;2023-12-20T01:59:41;21.97;;;11.73;;
3875;SDS011;1953;51.222;6.624;2023-12-20T02:04:25;26.13;;;10.00;;
3875;SDS011;1953;51.222;6.624;2023-12-20T02:09:08;24.37;;;10.70;;
3875;SDS011;1953;51.222;6.624;2023-12-20T02:13:52;23.13;;;8.80;;
3875;SDS011;1953;51.222;6.624;2023-12-20T02:18:35;22.90;;;10.00;;
3875;SDS011;1953;51.222;6.624;2023-12-20T02:23:19;17.53;;;6.67;;
3875;SDS011;1953;51.222;6.624;2023-12-20T02:28:02;21.07;;;7.43;;
3875;SDS011;1953;51.222;6.624;2023-12-20T02:32:45;22.37;;;6.30;;
3875;SDS011;1953;51.222;6.624;2023-12-20T02:37:28;15.40;;;4.70;;
3875;SDS011;1953;51.222;6.624;2023-12-20T02:42:11;11.03;;;4.60;;
3875;SDS011;1953;51.222;6.624;2023-12-20T02:46:54;13.47;;;3.77;;
3875;SDS011;1953;51.222;6.624;2023-12-20T02:51:36;16.77;;;4.07;;
3875;SDS011;1953;51.222;6.624;2023-12-20T02:56:19;20.43;;;4.50;;
3875;SDS011;1953;51.222;6.624;2023-12-20T03:01:03;13.13;;;4.17;;
3875;SDS011;1953;51.222;6.624;2023-12-20T03:05:46;21.40;;;5.37;;
3875;SDS011;1953;51.222;6.624;2023-12-20T03:10:28;15.93;;;3.67;;
3875;SDS011;1953;51.222;6.624;2023-12-20T03:15:11;28.17;;;5.37;;
3875;SDS011;1953;51.222;6.624;2023-12-20T03:19:55;24.60;;;6.10;;
3875;SDS011;1953;51.222;6.624;2023-12-20T03:24:37;18.03;;;5.00;;
3875;SDS011;1953;51.222;6.624;2023-12-20T03:29:20;17.20;;;4.90;;
3875;SDS011;1953;51.222;6.624;2023-12-20T03:34:02;22.50;;;6.00;;
3875;SDS011;1953;51.222;6.624;2023-12-20T03:38:46;16.63;;;5.33;;
3875;SDS011;1953;51.222;6.624;2023-12-20T03:43:29;23.47;;;5.23;;
3875;SDS011;1953;51.222;6.624;2023-12-20T03:48:11;22.27;;;6.07;;
3875;SDS011;1953;51.222;6.624;2023-12-20T03:52:54;16.60;;;6.23;;
3875;SDS011;1953;51.222;6.624;2023-12-20T03:57:38;16.87;;;4.90;;
3875;SDS011;1953;51.222;6.624;2023-12-20T04:02:20;18.10;;;4.33;;
3875;SDS011;1953;51.222;6.624;2023-12-20T04:07:03;20.00;;;5.93;;
3875;SDS011;1953;51.222;6.624;2023-12-20T04:11:45;21.03;;;6.10;;
3875;SDS011;1953;51.222;6.624;2023-12-20T04:16:29;13.30;;;4.87;;
3875;SDS011;1953;51.222;6.624;2023-12-20T04:21:12;14.67;;;5.73;;
3875;SDS011;1953;51.222;6.624;2023-12-20T04:25:54;21.07;;;6.70;;
3875;SDS011;1953;51.222;6.624;2023-12-20T04:30:37;19.27;;;6.07;;
3875;SDS011;1953;51.222;6.624;2023-12-20T04:35:21;19.13;;;5.50;;
3875;SDS011;1953;51.222;6.624;2023-12-20T04:40:04;16.53;;;5.80;;
3875;SDS011;1953;51.222;6.624;2023-12-20T04:44:48;22.43;;;7.00;;
3875;SDS011;1953;51.222;6.624;2023-12-20T04:49:30;21.53;;;5.80;;
3875;SDS011;1953;51.222;6.624;2023-12-20T04:54:14;18.23;;;6.80;;
3875;SDS011;1953;51.222;6.624;2023-12-20T04:58:57;20.60;;;7.07;;
3875;SDS011;1953;51.222;6.624;2023-12-20T05:03:39;20.50;;;6.90;;
3875;SDS011;1953;51.222;6.624;2023-12-20T05:08:22;18.40;;;7.00;;
3875;SDS011;1953;51.222;6.624;2023-12-20T05:13:05;12.80;;;5.80;;
3875;SDS011;1953;51.222;6.624;2023-12-20T05:17:48;22.80;;;5.63;;
3875;SDS011;1953;51.222;6.624;2023-12-20T05:22:31;13.20;;;5.30;;
3875;SDS011;1953;51.222;6.624;2023-12-20T05:27:13;18.77;;;6.23;;
3875;SDS011;1953;51.222;6.624;2023-12-20T05:31:57;29.17;;;5.53;;
3875;SDS011;1953;51.222;6.624;2023-12-20T05:36:40;19.00;;;5.93;;
3875;SDS011;1953;51.222;6.624;2023-12-20T05:41:23;23.00;;;5.33;;
3875;SDS011;1953;51.222;6.624;2023-12-20T05:46:05;21.03;;;5.20;;
3875;SDS011;1953;51.222;6.624;2023-12-20T05:50:49;24.63;;;6.37;;
3875;SDS011;1953;51.222;6.624;2023-12-20T05:55:31;12.40;;;4.13;;
3875;SDS011;1953;51.222;6.624;2023-12-20T06:00:14;22.37;;;8.40;;
3875;SDS011;1953;51.222;6.624;2023-12-20T06:04:57;22.20;;;6.57;;
3875;SDS011;1953;51.222;6.624;2023-12-20T06:09:41;29.17;;;8.17;;
3875;SDS011;1953;51.222;6.624;2023-12-20T06:14:24;17.43;;;5.93;;
3875;SDS011;1953;51.222;6.624;2023-12-20T06:19:06;18.53;;;6.50;;
3875;SDS011;1953;51.222;6.624;2023-12-20T06:23:49;25.73;;;7.97;;
3875;SDS011;1953;51.222;6.624;2023-12-20T06:28:33;19.73;;;6.27;;
3875;SDS011;1953;51.222;6.624;2023-12-20T06:33:15;19.10;;;7.40;;
3875;SDS011;1953;51.222;6.624;2023-12-20T06:37:59;20.23;;;5.33;;
3875;SDS011;1953;51.222;6.624;2023-12-20T06:42:42;22.33;;;5.80;;
3875;SDS011;1953;51.222;6.624;2023-12-20T06:47:26;28.33;;;7.00;;
3875;SDS011;1953;51.222;6.624;2023-12-20T06:52:08;19.23;;;6.23;;
3875;SDS011;1953;51.222;6.624;2023-12-20T06:56:51;17.03;;;5.40;;
3875;SDS011;1953;51.222;6.624;2023-12-20T07:01:33;25.50;;;6.57;;
3875;SDS011;1953;51.222;6.624;2023-12-20T07:06:17;22.03;;;6.80;;
3875;SDS011;1953;51.222;6.624;2023-12-20T07:11:00;22.87;;;6.87;;
3875;SDS011;1953;51.222;6.624;2023-12-20T07:15:43;22.10;;;6.33;;
3875;SDS011;1953;51.222;6.624;2023-12-20T07:20:25;15.83;;;6.20;;
3875;SDS011;1953;51.222;6.624;2023-12-20T07:25:09;18.47;;;7.00;;
3875;SDS011;1953;51.222;6.624;2023-12-20T07:29:52;22.80;;;6.80;;
3875;SDS011;1953;51.222;6.624;2023-12-20T07:34:34;18.97;;;7.10;;
3875;SDS011;1953;51.222;6.624;2023-12-20T07:39:17;22.07;;;7.20;;
3875;SDS011;1953;51.222;6.624;2023-12-20T07:44:01;17.20;;;6.30;;
3875;SDS011;1953;51.222;6.624;2023-12-20T07:48:44;21.73;;;5.53;;
3875;SDS011;1953;51.222;6.624;2023-12-20T07:53:27;16.93;;;6.80;;
3875;SDS011;1953;51.222;6.624;2023-12-20T07:58:09;17.23;;;6.70;;
3875;SDS011;1953;51.222;6.624;2023-12-20T08:02:53;19.93;;;7.60;;
3875;SDS011;1953;51.222;6.624;2023-12-20T08:07:36;24.37;;;7.00;;
3875;SDS011;1953;51.222;6.624;2023-12-20T08:12:18;22.43;;;6.97;;
3875;SDS011;1953;51.222;6.624;2023-12-20T08:17:01;22.10;;;6.27;;
3875;SDS011;1953;51.222;6.624;2023-12-20T08:21:45;18.40;;;6.77;;
3875;SDS011;1953;51.222;6.624;2023-12-20T08:26:27;11.30;;;4.60;;
3875;SDS011;1953;51.222;6.624;2023-12-20T08:31:13;22.63;;;5.40;;
3875;SDS011;1953;51.222;6.624;2023-12-20T08:35:56;16.30;;;6.10;;
3875;SDS011;1953;51.222;6.624;2023-12-20T08:40:40;21.80;;;7.43;;
3875;SDS011;1953;51.222;6.624;2023-12-20T08:45:23;17.43;;;6.67;;
3875;SDS011;1953;51.222;6.624;2023-12-20T08:50:06;18.10;;;6.40;;
3875;SDS011;1953;51.222;6.624;2023-12-20T08:54:49;14.20;;;5.80;;
3875;SDS011;1953;51.222;6.624;2023-12-20T08:59:34;18.90;;;5.73;;
3875;SDS011;1953;51.222;6.624;2023-12-20T09:04:17;18.20;;;3.70;;
3875;SDS011;1953;51.222;6.624;2023-12-20T09:08:59;21.23;;;6.20;;
3875;SDS011;1953;51.222;6.624;2023-12-20T09:13:42;15.40;;;4.80;;
3875;SDS011;1953;51.222;6.624;2023-12-20T09:18:26;16.13;;;5.90;;
3875;SDS011;1953;51.222;6.624;2023-12-20T09:23:09;18.47;;;5.73;;
3875;SDS011;1953;51.222;6.624;2023-12-20T09:27:51;20.50;;;5.90;;
3875;SDS011;1953;51.222;6.624;2023-12-20T09:32:34;6.40;;;3.60;;
3875;SDS011;1953;51.222;6.624;2023-12-20T09:37:18;17.97;;;5.70;;
3875;SDS011;1953;51.222;6.624;2023-12-20T09:42:01;14.67;;;5.07;;
3875;SDS011;1953;51.222;6.624;2023-12-20T09:46:45;17.73;;;5.07;;
3875;SDS011;1953;51.222;6.624;2023-12-20T09:51:32;13.90;;;5.50;;
3875;SDS011;1953;51.222;6.624;2023-12-20T09:56:16;15.10;;;5.90;;
3875;SDS011;1953;51.222;6.624;2023-12-20T10:00:59;21.00;;;5.27;;
3875;SDS011;1953;51.222;6.624;2023-12-20T10:05:43;14.97;;;4.83;;
3875;SDS011;1953;51.222;6.624;2023-12-20T10:10:26;20.90;;;5.47;;
3875;SDS011;1953;51.222;6.624;2023-12-20T10:15:10;15.90;;;4.33;;
3875;SDS011;1953;51.222;6.624;2023-12-20T10:19:53;17.33;;;4.27;;
3875;SDS011;1953;51.222;6.624;2023-12-20T10:24:35;23.73;;;5.43;;
3875;SDS011;1953;51.222;6.624;2023-12-20T10:29:18;16.00;;;4.03;;
3875;SDS011;1953;51.222;6.624;2023-12-20T10:34:02;13.93;;;4.60;;
3875;SDS011;1953;51.222;6.624;2023-12-20T10:38:45;17.10;;;4.70;;
3875;SDS011;1953;51.222;6.624;2023-12-20T10:43:30;18.37;;;5.03;;
3875;SDS011;1953;51.222;6.624;2023-12-20T10:48:15;11.23;;;4.60;;
3875;SDS011;1953;51.222;6.624;2023-12-20T10:52:59;7.97;;;3.30;;
3875;SDS011;1953;51.222;6.624;2023-12-20T10:57:42;28.90;;;4.87;;
3875;SDS011;1953;51.222;6.624;2023-12-20T11:02:31;14.20;;;4.87;;
3875;SDS011;1953;51.222;6.624;2023-12-20T11:07:20;20.57;;;5.40;;
3875;SDS011;1953;51.222;6.624;2023-12-20T11:16:09;17.40;;;4.57;;
3875;SDS011;1953;51.222;6.624;2023-12-20T11:20:51;19.53;;;5.70;;
3875;SDS011;1953;51.222;6.624;2023-12-20T11:25:46;17.07;;;6.17;;
3875;SDS011;1953;51.222;6.624;2023-12-20T11:30:35;9.77;;;4.33;;
3875;SDS011;1953;51.222;6.624;2023-12-20T11:35:24;13.30;;;4.67;;
3875;SDS011;1953;51.222;6.624;2023-12-20T11:40:08;15.80;;;6.00;;
3875;SDS011;1953;51.222;6.624;2023-12-20T11:44:55;12.23;;;4.90;;
3875;SDS011;1953;51.222;6.624;2023-12-20T11:49:38;13.77;;;6.03;;
3875;SDS011;1953;51.222;6.624;2023-12-20T11:54:22;17.97;;;5.70;;
3875;SDS011;1953;51.222;6.624;2023-12-20T11:59:05;17.10;;;5.63;;
3875;SDS011;1953;51.222;6.624;2023-12-20T12:03:52;18.73;;;6.50;;
3875;SDS011;1953;51.222;6.624;2023-12-20T12:08:44;18.70;;;6.27;;
3875;SDS011;1953;51.222;6.624;2023-12-20T12:13:28;14.20;;;5.20;;
3875;SDS011;1953;51.222;6.624;2023-12-20T12:21:22;20.53;;;6.53;;
3875;SDS011;1953;51.222;6.624;2023-12-20T12:26:05;22.50;;;6.00;;
3875;SDS011;1953;51.222;6.624;2023-12-20T12:30:56;18.87;;;6.70;;
3875;SDS011;1953;51.222;6.624;2023-12-20T12:35:39;17.20;;;6.93;;
3875;SDS011;1953;51.222;6.624;2023-12-20T12:40:24;14.67;;;5.77;;
3875;SDS011;1953;51.222;6.624;2023-12-20T12:45:06;15.40;;;6.67;;
3875;SDS011;1953;51.222;6.624;2023-12-20T12:49:49;14.97;;;6.00;;
3875;SDS011;1953;51.222;6.624;2023-12-20T12:54:33;22.23;;;7.27;;
3875;SDS011;1953;51.222;6.624;2023-12-20T12:59:18;16.37;;;7.13;;
3875;SDS011;1953;51.222;6.624;2023-12-20T13:04:01;22.43;;;7.73;;
3875;SDS011;1953;51.222;6.624;2023-12-20T13:08:47;19.90;;;8.70;;
3875;SDS011;1953;51.222;6.624;2023-12-20T13:13:29;25.80;;;9.93;;
3875;SDS011;1953;51.222;6.624;2023-12-20T13:18:14;12.30;;;5.07;;
3875;SDS011;1953;51.222;6.624;2023-12-20T13:22:56;19.93;;;8.63;;
3875;SDS011;1953;51.222;6.624;2023-12-20T13:27:39;22.67;;;9.17;;
3875;SDS011;1953;51.222;6.624;2023-12-20T13:32:22;22.17;;;6.77;;
3875;SDS011;1953;51.222;6.624;2023-12-20T13:37:07;17.50;;;7.40;;
3875;SDS011;1953;51.222;6.624;2023-12-20T13:41:49;22.63;;;7.80;;
3875;SDS011;1953;51.222;6.624;2023-12-20T13:46:32;13.87;;;6.30;;
3875;SDS011;1953;51.222;6.624;2023-12-20T13:51:14;15.30;;;5.47;;
3875;SDS011;1953;51.222;6.624;2023-12-20T13:55:58;16.20;;;7.67;;
3875;SDS011;1953;51.222;6.624;2023-12-20T14:00:41;15.43;;;7.73;;
3875;SDS011;1953;51.222;6.624;2023-12-20T14:05:23;20.83;;;8.57;;
3875;SDS011;1953;51.222;6.624;2023-12-20T14:10:07;16.77;;;6.97;;
3875;SDS011;1953;51.222;6.624;2023-12-20T14:14:52;12.20;;;4.93;;
3875;SDS011;1953;51.222;6.624;2023-12-20T14:19:36;15.43;;;7.00;;
3875;SDS011;1953;51.222;6.624;2023-12-20T14:24:20;15.53;;;6.73;;
3875;SDS011;1953;51.222;6.624;2023-12-20T14:29:02;13.40;;;6.13;;
3875;SDS011;1953;51.222;6.624;2023-12-20T14:33:46;18.10;;;7.37;;
3875;SDS011;1953;51.222;6.624;2023-12-20T14:38:30;17.13;;;7.83;;
3875;SDS011;1953;51.222;6.624;2023-12-20T14:43:13;17.47;;;6.70;;
3875;SDS011;1953;51.222;6.624;2023-12-20T14:47:57;29.40;;;8.30;;
3875;SDS011;1953;51.222;6.624;2023-12-20T14:52:41;16.67;;;7.67;;
3875;SDS011;1953;51.222;6.624;2023-12-20T14:57:23;23.87;;;8.10;;
3875;SDS011;1953;51.222;6.624;2023-12-20T15:02:06;21.63;;;8.00;;
3875;SDS011;1953;51.222;6.624;2023-12-20T15:06:49;20.73;;;7.87;;
3875;SDS011;1953;51.222;6.624;2023-12-20T15:11:34;14.50;;;6.03;;
3875;SDS011;1953;51.222;6.624;2023-12-20T15:16:17;26.43;;;8.60;;
3875;SDS011;1953;51.222;6.624;2023-12-20T15:20:59;20.23;;;6.37;;
3875;SDS011;1953;51.222;6.624;2023-12-20T15:25:42;19.33;;;8.70;;
3875;SDS011;1953;51.222;6.624;2023-12-20T15:30:26;17.30;;;8.03;;
3875;SDS011;1953;51.222;6.624;2023-12-20T15:35:08;14.50;;;6.00;;
3875;SDS011;1953;51.222;6.624;2023-12-20T15:39:51;23.67;;;7.63;;
3875;SDS011;1953;51.222;6.624;2023-12-20T15:44:33;17.20;;;7.40;;
3875;SDS011;1953;51.222;6.624;2023-12-20T15:49:17;18.30;;;7.50;;
3875;SDS011;1953;51.222;6.624;2023-12-20T15:54:00;21.57;;;8.87;;
3875;SDS011;1953;51.222;6.624;2023-12-20T15:58:46;19.57;;;7.47;;
3875;SDS011;1953;51.222;6.624;2023-12-20T16:03:29;19.03;;;8.40;;
3875;SDS011;1953;51.222;6.624;2023-12-20T16:08:13;19.03;;;8.33;;
3875;SDS011;1953;51.222;6.624;2023-12-20T16:12:56;20.37;;;8.87;;
3875;SDS011;1953;51.222;6.624;2023-12-20T16:17:39;18.57;;;7.40;;
3875;SDS011;1953;51.222;6.624;2023-12-20T16:22:21;30.53;;;8.93;;
3875;SDS011;1953;51.222;6.624;2023-12-20T16:27:05;20.60;;;6.67;;
3875;SDS011;1953;51.222;6.624;2023-12-20T16:31:48;19.57;;;6.90;;
3875;SDS011;1953;51.222;6.624;2023-12-20T16:36:33;12.93;;;6.30;;
3875;SDS011;1953;51.222;6.624;2023-12-20T16:41:31;22.30;;;8.07;;
3875;SDS011;1953;51.222;6.624;2023-12-20T16:46:15;17.37;;;6.53;;
3875;SDS011;1953;51.222;6.624;2023-12-20T16:50:57;19.67;;;8.53;;
3875;SDS011;1953;51.222;6.624;2023-12-20T16:55:40;19.53;;;7.20;;
3875;SDS011;1953;51.222;6.624;2023-12-20T17:00:24;22.27;;;7.67;;
3875;SDS011;1953;51.222;6.624;2023-12-20T17:05:09;16.70;;;8.20;;
3875;SDS011;1953;51.222;6.624;2023-12-20T17:09:52;21.50;;;7.87;;
3875;SDS011;1953;51.222;6.624;2023-12-20T17:14:34;25.00;;;8.27;;
3875;SDS011;1953;51.222;6.624;2023-12-20T17:19:17;16.77;;;6.87;;
3875;SDS011;1953;51.222;6.624;2023-12-20T17:24:02;21.17;;;9.00;;
3875;SDS011;1953;51.222;6.624;2023-12-20T17:28:44;19.47;;;8.30;;
3875;SDS011;1953;51.222;6.624;2023-12-20T17:33:28;24.93;;;8.43;;
3875;SDS011;1953;51.222;6.624;2023-12-20T17:38:11;26.03;;;8.80;;
3875;SDS011;1953;51.222;6.624;2023-12-20T17:42:55;20.10;;;7.83;;
3875;SDS011;1953;51.222;6.624;2023-12-20T17:47:39;24.13;;;8.97;;
3875;SDS011;1953;51.222;6.624;2023-12-20T17:52:22;19.70;;;9.03;;
3875;SDS011;1953;51.222;6.624;2023-12-20T17:57:05;24.10;;;9.07;;
3875;SDS011;1953;51.222;6.624;2023-12-20T18:01:49;20.10;;;9.13;;
3875;SDS011;1953;51.222;6.624;2023-12-20T18:06:31;16.90;;;8.23;;
3875;SDS011;1953;51.222;6.624;2023-12-20T18:11:14;17.80;;;6.20;;
3875;SDS011;1953;51.222;6.624;2023-12-20T18:15:56;14.33;;;7.43;;
3875;SDS011;1953;51.222;6.624;2023-12-20T18:20:40;17.77;;;8.27;;
3875;SDS011;1953;51.222;6.624;2023-12-20T18:25:22;17.40;;;7.00;;
3875;SDS011;1953;51.222;6.624;2023-12-20T18:30:05;17.60;;;7.57;;
3875;SDS011;1953;51.222;6.624;2023-12-20T18:34:49;14.00;;;7.50;;
3875;SDS011;1953;51.222;6.624;2023-12-20T18:39:33;22.07;;;8.00;;
3875;SDS011;1953;51.222;6.624;2023-12-20T18:44:15;16.53;;;6.83;;
3875;SDS011;1953;51.222;6.624;2023-12-20T18:48:58;23.20;;;7.13;;
3875;SDS011;1953;51.222;6.624;2023-12-20T18:53:41;14.80;;;7.20;;
3875;SDS011;1953;51.222;6.624;2023-12-20T18:58:25;23.27;;;8.00;;
3875;SDS011;1953;51.222;6.624;2023-12-20T19:03:11;12.43;;;6.87;;
3875;SDS011;1953;51.222;6.624;2023-12-20T19:07:53;19.70;;;8.10;;
3875;SDS011;1953;51.222;6.624;2023-12-20T19:12:36;20.60;;;8.10;;
3875;SDS011;1953;51.222;6.624;2023-12-20T19:17:20;18.13;;;7.47;;
3875;SDS011;1953;51.222;6.624;2023-12-20T19:22:02;18.27;;;8.43;;
3875;SDS011;1953;51.222;6.624;2023-12-20T19:26:45;24.83;;;9.90;;
3875;SDS011;1953;51.222;6.624;2023-12-20T19:31:27;18.80;;;8.10;;
3875;SDS011;1953;51.222;6.624;2023-12-20T19:36:11;25.00;;;9.57;;
3875;SDS011;1953;51.222;6.624;2023-12-20T19:40:54;19.00;;;8.20;;
3875;SDS011;1953;51.222;6.624;2023-12-20T19:45:36;17.77;;;7.90;;
3875;SDS011;1953;51.222;6.624;2023-12-20T19:50:19;18.27;;;8.97;;
3875;SDS011;1953;51.222;6.624;2023-12-20T19:55:03;15.77;;;8.23;;
3875;SDS011;1953;51.222;6.624;2023-12-20T19:59:46;22.77;;;9.30;;
3875;SDS011;1953;51.222;6.624;2023-12-20T20:04:28;21.40;;;6.83;;
3875;SDS011;1953;51.222;6.624;2023-12-20T20:09:11;18.00;;;8.70;;
3875;SDS011;1953;51.222;6.624;2023-12-20T20:13:55;20.70;;;8.57;;
3875;SDS011;1953;51.222;6.624;2023-12-20T20:18:38;16.67;;;7.47;;
3875;SDS011;1953;51.222;6.624;2023-12-20T20:23:20;24.67;;;10.20;;
3875;SDS011;1953;51.222;6.624;2023-12-20T20:28:03;16.30;;;7.37;;
3875;SDS011;1953;51.222;6.624;2023-12-20T20:32:47;17.63;;;8.53;;
3875;SDS011;1953;51.222;6.624;2023-12-20T20:37:29;21.77;;;8.17;;
3875;SDS011;1953;51.222;6.624;2023-12-20T20:42:12;15.23;;;7.23;;
3875;SDS011;1953;51.222;6.624;2023-12-20T20:46:54;16.20;;;6.30;;
3875;SDS011;1953;51.222;6.624;2023-12-20T20:51:38;18.67;;;9.10;;
3875;SDS011;1953;51.222;6.624;2023-12-20T20:56:21;17.47;;;8.20;;
3875;SDS011;1953;51.222;6.624;2023-12-20T21:01:04;19.80;;;8.20;;
3875;SDS011;1953;51.222;6.624;2023-12-20T21:05:46;25.40;;;9.20;;
3875;SDS011;1953;51.222;6.624;2023-12-20T21:10:30;23.53;;;9.80;;
3875;SDS011;1953;51.222;6.624;2023-12-20T21:15:13;15.80;;;8.00;;
3875;SDS011;1953;51.222;6.624;2023-12-20T21:19:55;25.20;;;9.50;;
3875;SDS011;1953;51.222;6.624;2023-12-20T21:24:38;19.63;;;7.77;;
3875;SDS011;1953;51.222;6.624;2023-12-20T21:29:22;23.70;;;8.83;;
3875;SDS011;1953;51.222;6.624;2023-12-20T21:34:04;20.10;;;8.57;;
3875;SDS011;1953;51.222;6.624;2023-12-20T21:38:47;22.70;;;8.60;;
3875;SDS011;1953;51.222;6.624;2023-12-20T21:43:30;18.50;;;7.83;;
3875;SDS011;1953;51.222;6.624;2023-12-20T21:48:14;10.63;;;6.07;;
3875;SDS011;1953;51.222;6.624;2023-12-20T21:52:56;12.00;;;6.97;;
3875;SDS011;1953;51.222;6.624;2023-12-20T21:57:39;18.10;;;7.60;;
3875;SDS011;1953;51.222;6.624;2023-12-20T22:02:21;21.33;;;8.07;;
3875;SDS011;1953;51.222;6.624;2023-12-20T22:07:05;16.13;;;7.17;;
3875;SDS011;1953;51.222;6.624;2023-12-20T22:11:48;16.53;;;7.17;;
3875;SDS011;1953;51.222;6.624;2023-12-20T22:16:30;15.03;;;6.23;;
3875;SDS011;1953;51.222;6.624;2023-12-20T22:21:13;19.17;;;8.53;;
3875;SDS011;1953;51.222;6.624;2023-12-20T22:25:57;19.00;;;8.83;;
3875;SDS011;1953;51.222;6.624;2023-12-20T22:30:40;17.67;;;8.70;;
3875;SDS011;1953;51.222;6.624;2023-12-20T22:35:23;21.17;;;9.07;;
3875;SDS011;1953;51.222;6.624;2023-12-20T22:40:06;21.53;;;7.97;;
3875;SDS011;1953;51.222;6.624;2023-12-20T22:44:51;16.03;;;6.37;;
3875;SDS011;1953;51.222;6.624;2023-12-20T22:49:35;14.53;;;7.47;;
3875;SDS011;1953;51.222;6.624;2023-12-20T22:54:18;16.77;;;7.53;;
3875;SDS011;1953;51.222;6.624;2023-12-20T22:59:00;18.40;;;8.10;;
3875;SDS011;1953;51.222;6.624;2023-12-20T23:03:44;17.80;;;7.67;;
3875;SDS011;1953;51.222;6.624;2023-12-20T23:08:27;11.57;;;6.33;;
3875;SDS011;1953;51.222;6.624;2023-12-20T23:13:10;15.63;;;6.90;;
3875;SDS011;1953;51.222;6.624;2023-12-20T23:17:52;13.73;;;7.10;;
3875;SDS011;1953;51.222;6.624;2023-12-20T23:22:38;15.23;;;6.60;;
3875;SDS011;1953;51.222;6.624;2023-12-20T23:27:21;18.00;;;6.03;;
3875;SDS011;1953;51.222;6.624;2023-12-20T23:31:44;15.17;;;5.57;;
3875;SDS011;1953;51.222;6.624;2023-12-20T23:36:26;11.67;;;6.27;;
3875;SDS011;1953;51.222;6.624;2023-12-20T23:41:10;6.90;;;3.50;;
3875;SDS011;1953;51.222;6.624;2023-12-20T23:45:52;11.80;;;5.73;;
3875;SDS011;1953;51.222;6.624;2023-12-20T23:50:35;11.97;;;6.00;;
3875;SDS011;1953;51.222;6.624;2023-12-20T23:55:17;11.37;;;4.67;;
